Time;durP1;ratioP1;P1;durP2;ratioP2;P2;SDS_P1;SDS_P2;PMS_P1;PMS_P2;Temp;Humidity;BMP_temperature;BMP_pressure;BME280_temperature;BME280_humidity;BME280_pressure;Samples;Min_cycle;Max_cycle;Signal;HPM_P1;HPM_P2
2023/05/29 00:05:40;;;;;;;3.22;2.00;;;;;;;25.93;36.71;101482.47;21005306;28;20037;-68
2023/05/29 00:15:42;;;;;;;2.13;1.85;;;;;;;25.91;36.35;101473.56;21004058;28;20036;-68
2023/05/29 00:25:46;;;;;;;2.95;1.73;;;;;;;25.92;36.83;101481.66;20964079;28;20048;-68
2023/05/29 00:35:47;;;;;;;22.02;3.35;;;;;;;25.96;36.74;101479.09;20904732;28;20056;-68
2023/05/29 00:45:51;;;;;;;11.02;2.58;;;;;;;25.62;36.02;101452.06;20915809;28;20136;-67
2023/05/29 00:55:53;;;;;;;18.77;3.22;;;;;;;25.82;36.87;101498.63;20966795;28;20090;-65
2023/05/29 01:05:55;;;;;;;20.67;2.85;;;;;;;25.85;36.60;101524.09;20976481;28;20514;-65
2023/05/29 01:16:34;;;;;;;21.27;2.97;;;;;;;25.85;36.64;101526.06;20997978;28;20571;-66
2023/05/29 01:26:45;;;;;;;;;;;;;;;25.92;36.53;101520.09;20947039;28;20048;-65
2023/05/29 01:36:46;;;;;;;13.32;2.85;;;;;;;25.96;36.41;101530.41;20950507;28;20272;-65
2023/05/29 01:46:54;;;;;;;12.15;2.78;;;;;;;25.99;35.70;101537.38;20943612;28;20049;-65
2023/05/29 01:56:56;;;;;;;70.10;7.85;;;;;;;25.98;36.55;101542.16;20937533;28;20585;-64
2023/05/29 02:06:57;;;;;;;18.13;2.72;;;;;;;25.47;34.05;101525.09;20941960;28;20557;-67
2023/05/29 02:17:01;;;;;;;16.02;2.88;;;;;;;25.42;34.62;101555.97;20957916;28;20036;-65
2023/05/29 02:27:05;;;;;;;11.82;3.03;;;;;;;25.20;34.54;101546.13;20950466;28;20094;-66
2023/05/29 02:37:06;;;;;;;17.83;2.72;;;;;;;25.04;34.83;101538.97;20955796;28;20044;-66
2023/05/29 02:47:07;;;;;;;13.43;2.60;;;;;;;24.89;34.52;101525.13;20965122;28;20036;-64
2023/05/29 02:57:09;;;;;;;55.08;6.13;;;;;;;24.54;35.22;101469.16;20941649;28;20032;-65
2023/05/29 03:07:12;;;;;;;15.27;3.40;;;;;;;24.78;35.04;101508.41;20940184;28;20114;-66
2023/05/29 03:17:13;;;;;;;13.88;2.78;;;;;;;24.61;34.42;101496.81;20967298;28;20044;-65
2023/05/29 03:27:15;;;;;;;14.98;2.85;;;;;;;24.31;34.85;101467.91;21029276;28;20403;-66
2023/05/29 03:37:16;;;;;;;11.15;2.78;;;;;;;24.46;34.86;101488.53;21037399;28;20417;-66
2023/05/29 03:47:21;;;;;;;12.68;2.80;;;;;;;24.41;34.83;101472.63;21042291;28;20044;-67
2023/05/29 03:57:22;;;;;;;10.73;2.40;;;;;;;24.34;34.82;101470.16;21031880;28;20036;-66
2023/05/29 04:07:24;;;;;;;6.03;2.00;;;;;;;24.25;34.57;101463.50;20997109;28;20155;-67
2023/05/29 04:17:26;;;;;;;5.28;2.28;;;;;;;24.24;34.49;101466.59;20993734;28;20056;-66
2023/05/29 04:27:27;;;;;;;4.97;2.00;;;;;;;24.20;34.79;101468.31;21013493;28;20487;-65
2023/05/29 04:37:37;;;;;;;9.60;2.17;;;;;;;24.02;34.95;101444.66;21013784;28;20048;-66
2023/05/29 04:47:44;;;;;;;6.75;2.00;;;;;;;24.09;34.75;101447.94;20968782;28;20458;-66
2023/05/29 04:57:46;;;;;;;8.40;2.07;;;;;;;24.04;34.47;101437.63;21017401;28;20044;-66
2023/05/29 05:07:47;;;;;;;4.63;1.73;;;;;;;23.96;34.61;101429.88;21025062;28;20048;-67
2023/05/29 05:17:49;;;;;;;4.15;1.83;;;;;;;23.92;34.79;101414.81;21000564;28;20052;-66
2023/05/29 05:27:53;;;;;;;3.08;1.75;;;;;;;23.87;34.93;101402.81;21052250;28;20134;-66
2023/05/29 05:37:57;;;;;;;3.53;1.95;;;;;;;23.87;34.46;101398.09;21034044;28;20109;-67
2023/05/29 05:48:01;;;;;;;2.83;1.55;;;;;;;23.88;34.56;101393.31;21027014;28;20425;-67
2023/05/29 05:58:03;;;;;;;2.38;1.30;;;;;;;23.70;34.33;101358.50;21024413;28;20044;-66
2023/05/29 06:08:08;;;;;;;5.65;1.90;;;;;;;22.88;34.45;101238.03;21003763;28;20036;-69
2023/05/29 06:18:12;;;;;;;4.32;1.45;;;;;;;23.75;34.43;101356.50;21017895;28;20049;-66
2023/05/29 06:28:13;;;;;;;2.33;1.40;;;;;;;23.73;34.70;101361.56;20968336;28;20048;-66
2023/05/29 06:38:15;;;;;;;6.82;2.00;;;;;;;23.80;34.96;101356.47;20923439;28;20043;-67
2023/05/29 06:48:19;;;;;;;7.68;1.85;;;;;;;23.91;35.45;101364.78;21019136;28;20036;-67
2023/05/29 06:58:21;;;;;;;4.03;1.65;;;;;;;24.00;35.18;101357.44;20953084;28;20037;-67
2023/05/29 07:08:23;;;;;;;3.63;1.30;;;;;;;24.10;35.58;101351.78;20937279;28;20074;-67
2023/05/29 07:18:24;;;;;;;3.97;1.80;;;;;;;23.94;35.87;101308.31;20942960;28;20045;-67
2023/05/29 07:28:25;;;;;;;2.90;1.50;;;;;;;24.23;35.66;101328.72;20966145;28;20036;-67
2023/05/29 07:38:27;;;;;;;2.55;1.40;;;;;;;24.34;35.75;101332.25;20931462;28;20079;-68
2023/05/29 07:48:28;;;;;;;2.60;1.40;;;;;;;24.41;35.80;101329.13;20977745;28;20059;-68
2023/05/29 07:58:29;;;;;;;2.55;1.80;;;;;;;24.46;35.93;101327.09;20967404;28;20044;-68
2023/05/29 08:08:31;;;;;;;2.60;1.35;;;;;;;24.21;36.00;101268.63;20947705;28;20132;-67
2023/05/29 08:18:33;;;;;;;1.65;1.25;;;;;;;24.59;35.88;101319.97;20969461;28;20049;-67
2023/05/29 08:28:34;;;;;;;3.72;1.35;;;;;;;24.64;35.85;101314.31;20959761;28;20377;-66
2023/05/29 08:38:39;;;;;;;2.05;1.40;;;;;;;24.69;36.00;101319.03;20983440;28;20052;-66
2023/05/29 08:48:47;;;;;;;1.20;1.10;;;;;;;24.69;35.90;101308.66;20951820;28;20048;-66
2023/05/29 08:58:50;;;;;;;2.03;1.30;;;;;;;24.54;36.07;101278.06;20953497;28;20053;-66
2023/05/29 09:08:55;;;;;;;1.10;1.00;;;;;;;24.80;36.03;101321.44;20957658;28;20087;-67
2023/05/29 09:19:09;;;;;;;2.65;1.48;;;;;;;24.80;36.11;101323.41;20921748;28;20476;-67
2023/05/29 09:29:12;;;;;;;2.55;1.40;;;;;;;24.87;36.25;101325.81;20934363;28;20463;-67
2023/05/29 09:39:14;;;;;;;2.22;1.38;;;;;;;24.90;36.19;101331.66;20964277;28;20071;-67
2023/05/29 09:49:16;;;;;;;2.78;1.30;;;;;;;24.71;36.42;101303.63;20980783;28;20094;-68
2023/05/29 09:59:18;;;;;;;2.53;1.20;;;;;;;24.20;36.63;101220.25;20989936;28;20040;-68
2023/05/29 10:09:23;;;;;;;2.25;1.35;;;;;;;24.98;36.55;101346.97;20956209;28;20041;-67
2023/05/29 10:19:29;;;;;;;1.92;1.27;;;;;;;24.93;36.48;101339.47;20966344;28;20546;-67
2023/05/29 10:29:48;;;;;;;3.17;1.20;;;;;;;24.99;36.66;101357.03;20986870;28;20102;-66
2023/05/29 10:39:50;;;;;;;1.77;1.20;;;;;;;25.04;36.23;101348.56;20938568;28;20049;-67
2023/05/29 10:49:51;;;;;;;2.15;1.35;;;;;;;25.04;36.36;101352.19;20947118;28;20049;-67
2023/05/29 11:00:11;;;;;;;3.03;1.58;;;;;;;25.00;36.25;101353.94;20966174;28;20500;-67
2023/05/29 11:10:16;;;;;;;3.13;1.40;;;;;;;25.00;36.25;101344.69;20957522;28;20110;-67
2023/05/29 11:20:52;;;;;;;3.30;1.42;;;;;;;25.07;38.01;101364.78;20948081;28;20037;-65
2023/05/29 11:30:56;;;;;;;4.97;1.48;;;;;;;25.16;36.52;101367.78;20935475;28;20036;-66
2023/05/29 11:41:00;;;;;;;15.02;2.90;;;;;;;24.97;38.20;101381.69;20965479;28;20040;-67
2023/05/29 11:51:03;;;;;;;6.72;2.28;;;;;;;24.90;39.32;101384.03;20965165;28;20506;-65
2023/05/29 12:01:05;;;;;;;19.48;4.85;;;;;;;24.89;40.27;101371.16;20953692;28;20090;-71
2023/05/29 12:11:07;;;;;;;13.88;4.05;;;;;;;25.04;39.47;101382.16;20931914;28;20396;-68
2023/05/29 12:21:08;;;;;;;9.73;2.90;;;;;;;24.99;38.77;101363.47;20929777;28;20033;-67
2023/05/29 12:31:10;;;;;;;12.23;2.90;;;;;;;25.20;38.43;101391.22;20960217;28;20063;-66
2023/05/29 12:41:22;;;;;;;11.48;2.70;;;;;;;25.18;38.22;101393.50;20972597;28;20049;-66
2023/05/29 12:51:27;;;;;;;10.43;3.22;;;;;;;25.26;38.35;101410.50;20955330;28;20070;-66
2023/05/29 13:01:35;;;;;;;7.50;3.08;;;;;;;25.33;38.24;101419.34;20952298;28;20040;-66
2023/05/29 13:11:36;;;;;;;8.02;3.42;;;;;;;25.41;38.33;101433.84;21000909;28;20102;-66
2023/05/29 13:21:38;;;;;;;7.97;3.00;;;;;;;25.26;38.10;101418.91;20999838;28;20057;-66
2023/05/29 13:31:39;;;;;;;7.50;3.22;;;;;;;25.48;38.09;101428.72;21061615;28;20097;-66
2023/05/29 13:41:43;;;;;;;7.32;3.42;;;;;;;25.42;38.32;101416.72;21082336;28;20051;-66
2023/05/29 13:51:46;;;;;;;7.40;3.30;;;;;;;25.53;38.37;101417.44;21022806;28;20078;-68
2023/05/29 14:01:48;;;;;;;5.85;2.83;;;;;;;25.63;38.09;101422.06;20919844;28;20041;-68
2023/05/29 14:11:49;;;;;;;6.65;2.38;;;;;;;25.63;38.19;101422.91;20956143;28;20044;-67
2023/05/29 14:21:51;;;;;;;5.65;2.50;;;;;;;25.32;37.89;101367.25;20932853;28;20084;-67
2023/05/29 14:31:53;;;;;;;5.75;2.35;;;;;;;25.46;38.23;101400.16;20913817;28;20110;-67
2023/05/29 14:42:00;;;;;;;6.10;2.47;;;;;;;25.68;38.22;101438.81;20926490;28;20067;-67
2023/05/29 14:52:03;;;;;;;6.67;2.47;;;;;;;25.09;38.33;101343.75;20964214;28;20052;-67
2023/05/29 15:02:05;;;;;;;5.15;3.00;;;;;;;25.66;38.13;101443.88;20977396;28;20041;-67
2023/05/29 15:12:07;;;;;;;5.35;2.30;;;;;;;25.76;38.38;101449.38;20992138;28;20052;-68
2023/05/29 15:22:08;;;;;;;4.15;2.15;;;;;;;25.47;38.24;101401.81;20992875;28;20037;-68
2023/05/29 15:32:10;;;;;;;4.60;2.45;;;;;;;25.76;38.38;101450.22;20990589;28;20028;-66
2023/05/29 15:42:14;;;;;;;5.85;2.08;;;;;;;25.80;37.99;101440.06;20963480;28;20469;-67
2023/05/29 15:52:18;;;;;;;5.80;3.10;;;;;;;25.84;37.85;101449.53;20938259;28;20055;-67
2023/05/29 16:02:19;;;;;;;4.88;2.65;;;;;;;25.85;38.22;101447.56;21012140;28;20025;-67
2023/05/29 16:12:21;;;;;;;4.05;2.47;;;;;;;25.87;38.18;101450.06;20996968;28;20032;-66
2023/05/29 16:22:25;;;;;;;6.25;2.35;;;;;;;25.88;37.80;101452.56;21040352;28;20101;-66
2023/05/29 16:32:27;;;;;;;3.63;2.40;;;;;;;25.89;38.04;101459.00;21084582;28;20044;-65
2023/05/29 16:42:29;;;;;;;8.93;2.90;;;;;;;25.82;38.09;101463.00;21036333;28;20056;-66
2023/05/29 16:52:30;;;;;;;4.75;2.25;;;;;;;25.77;37.43;101446.25;20918619;28;20045;-67
2023/05/29 17:02:34;;;;;;;7.22;2.17;;;;;;;25.57;37.30;101435.31;20948119;28;20074;-65
2023/05/29 17:12:38;;;;;;;3.92;2.40;;;;;;;25.56;37.43;101444.84;21011783;28;20040;-67
2023/05/29 17:22:39;;;;;;;6.18;2.95;;;;;;;25.42;37.28;101441.94;21046892;28;20565;-65
2023/05/29 17:32:44;;;;;;;4.63;2.50;;;;;;;25.09;36.91;101398.94;20997929;28;20093;-65
2023/05/29 17:42:45;;;;;;;3.97;2.80;;;;;;;25.19;37.17;101438.00;20997180;28;20041;-65
2023/05/29 17:52:49;;;;;;;8.98;3.13;;;;;;;25.23;37.03;101458.69;20978836;28;20110;-65
2023/05/29 18:02:50;;;;;;;4.57;3.10;;;;;;;25.04;37.51;101415.78;20974229;28;20492;-65
2023/05/29 18:12:52;;;;;;;4.85;3.10;;;;;;;25.09;37.61;101410.13;20936544;28;20052;-67
2023/05/29 18:22:55;;;;;;;4.20;3.20;;;;;;;25.43;37.89;101449.22;20938552;28;20048;-67
2023/05/29 18:33:00;;;;;;;6.25;3.88;;;;;;;25.53;38.03;101451.06;20924980;28;20083;-66
2023/05/29 18:43:04;;;;;;;4.53;3.50;;;;;;;25.53;38.17;101459.47;20926269;28;20066;-66
2023/05/29 18:53:07;;;;;;;8.27;3.95;;;;;;;25.62;38.04;101482.91;20955859;28;20044;-67
2023/05/29 19:03:09;;;;;;;6.63;3.90;;;;;;;25.74;38.27;101505.69;20973225;28;20122;-67
2023/05/29 19:13:10;;;;;;;5.00;3.67;;;;;;;25.79;37.93;101514.06;20991897;28;20036;-67
2023/05/29 19:23:12;;;;;;;17.30;4.78;;;;;;;25.81;38.32;101525.84;20939426;28;20103;-68
2023/05/29 19:33:16;;;;;;;6.90;4.20;;;;;;;25.72;38.14;101522.00;20957116;28;20075;-76
2023/05/29 19:43:22;;;;;;;8.75;4.63;;;;;;;25.89;38.13;101534.69;20974314;28;20071;-69
2023/05/29 19:53:23;;;;;;;9.68;4.43;;;;;;;25.91;38.19;101533.28;20975853;28;20053;-67
2023/05/29 20:03:25;;;;;;;7.95;4.45;;;;;;;25.94;38.05;101551.47;20971166;28;20049;-67
2023/05/29 20:13:27;;;;;;;8.07;5.13;;;;;;;25.95;37.88;101562.38;20982382;28;20395;-67
2023/05/29 20:23:28;;;;;;;5.90;4.60;;;;;;;25.96;37.75;101566.03;20994197;28;20040;-67
2023/05/29 20:33:29;;;;;;;9.82;4.70;;;;;;;25.79;37.76;101528.09;20949677;28;20492;-67
2023/05/29 20:43:35;;;;;;;7.07;4.85;;;;;;;25.98;38.16;101563.72;20994875;28;20040;-67
2023/05/29 20:53:36;;;;;;;7.22;5.47;;;;;;;25.96;37.83;101566.84;20976414;28;20408;-67
2023/05/29 21:03:38;;;;;;;10.13;5.55;;;;;;;25.99;37.73;101568.22;20962675;28;20071;-67
2023/05/29 21:13:39;;;;;;;9.80;5.53;;;;;;;25.99;37.69;101573.84;20935753;28;20079;-67
2023/05/29 21:23:41;;;;;;;8.45;5.50;;;;;;;26.02;37.52;101570.41;20928558;28;20033;-67
2023/05/29 21:33:48;;;;;;;8.75;5.85;;;;;;;26.01;37.42;101563.16;20941490;28;20484;-67
2023/05/29 21:43:49;;;;;;;9.97;6.27;;;;;;;26.01;37.87;101563.16;20977959;28;20559;-66
2023/05/29 21:53:51;;;;;;;9.95;7.10;;;;;;;26.00;37.61;101575.50;20965454;28;20052;-67
2023/05/29 22:03:52;;;;;;;10.98;7.18;;;;;;;25.79;37.81;101558.91;20949420;28;20035;-65
2023/05/29 22:13:59;;;;;;;9.40;7.50;;;;;;;26.02;37.91;101606.88;20948407;28;20117;-65
2023/05/29 22:24:01;;;;;;;19.88;9.95;;;;;;;26.00;38.10;101609.16;21056305;28;20504;-66
2023/05/29 22:34:02;;;;;;;28.42;14.30;;;;;;;26.05;38.60;101642.75;20993620;28;20032;-66
2023/05/29 22:44:04;;;;;;;26.67;16.58;;;;;;;26.06;38.63;101644.41;20993994;28;20503;-66
2023/05/29 22:54:06;;;;;;;26.90;17.58;;;;;;;26.06;38.77;101672.44;20996871;28;20048;-66
2023/05/29 23:04:07;;;;;;;28.95;18.65;;;;;;;25.84;39.03;101645.81;20990885;28;20045;-66
2023/05/29 23:14:11;;;;;;;26.95;18.35;;;;;;;26.05;38.77;101690.41;20991664;28;20545;-66
2023/05/29 23:24:13;;;;;;;28.42;19.17;;;;;;;25.83;38.90;101662.91;20991261;28;20044;-67
2023/05/29 23:34:17;;;;;;;27.42;19.13;;;;;;;25.82;38.63;101684.50;21005901;28;20045;-66
2023/05/29 23:44:19;;;;;;;30.13;19.63;;;;;;;26.05;38.63;101724.06;21007046;28;20054;-66
2023/05/29 23:54:23;;;;;;;27.98;17.92;;;;;;;25.69;38.46;101667.50;21005890;28;20052;-65
